Etusivu
METAR-TAF:

METAR-TAF

Lentoasemat :

Jijel, Algeria

Leveyspiiri: 36-53N, Pituuspiiri: 005-49E, korkeus merenpinnasta: 2 m

Tämänhetkinen sää

Tämä raportti tehtiin 47 minuuttia sitten, kello 14.00 UTC
Tuuli 5 kn luoteesta, vaihdellen lännen ja pohjoisen/luoteen välillä
Lämpötila 30°C
Kosteus 33%
Ilmanpaine 1013 hPa
Näkyvyys 10 km tai enemmän
Muutamia pilviä 3300 ft:n korkeudessa
Hajonneita pilviä 10000 ft:n korkeudessa

METAR: DAAV 151400Z 31005KT 270V330 9999 FEW033 BKN100 30/12 Q1013

Aika: 15:47 (14:47 UTC)

Sääennuste

Tämä raportti tehtiin 3 tuntia ja 47 minuuttia sitten, kello 11.00 UTC
Ennuste voimassa 15. päivästä klo 12 UTC - 16. päivään klo 12 UTC
Tuuli 8 kn pohjoisesta/koillisesta
Näkyvyys 10 km tai enemmän
Muutamia pilviä 2000 ft:n korkeudessa
Todennäköisyys 30% :
Ajoittain
15. päivästä klo 12 UTC - 15. päivään klo 19 UTC
Tuuli 14 kn pohjoisen/luoteesta

TAF: DAAV 151100Z 1512/1612 03008KT 9999 FEW020 PROB30 TEMPO 1512/1519 33014KT

Säähavainnot ja -ennusteet yli 4000 lentoasemalta (METAR- ja TAF-raportit).

Käytössä olevat sääasemat on merkitty karttaan keltaisilla ja punaisilla pisteillä.

Aseta hiiri pisteen päälle nähdäksesi sääaseman nimen.

Klikkaa sitten nähdäksesi säähavainnot ja -ennusteet.

Kartan vaihtaminen: klikkaa mustalla rastilla varustettuja vihreitä pisteitä, niin voit zoomata sisään; viivalla varustettua vihreää pistettä, niin voit zoomata ulos tai vihreitä nuolia, niin pääset viereisille kartoille.


METAR-TAF: